Jau, Brazil
Current Conditions -  °F | °C
As of 12:00 AM on Tuesday 23 Dec 2014 (Local Time) from SBBU Reporting Station
Clear Clear  
Wind Chill: 73°   Ceiling: Unl
Heat Index: 73°   Visibility: 6mi
Dew Point: 72°   Wind: 9mph
Humidity: 94%   Direction: 70°ENE
Pressure: 29.94"   Gusts: NA
Location:  22.29°S, 48.57°W
Report Text: SBBU 230200Z 07008KT CAVOK 23/22 Q1014
Loading
Personal Weather Stations






























Interactive Weather Map New forecast layout! Learn more

10-Day Weather Forecast

Advertisements
Track Severe Weather on mobile